Portada
METAR-TAF:

METAR-TAF

Aeroports :

Târgu Mureș, Romania

latitud: 46-32N, longitud: 024-32E, altitud: 308 m

Observació

L'informe es va fer fa 27 minuts, a les 09:30 UTC
Vent 4 kt del Sud-Est, variant entre Est/Nord-Est i Sud
Temperatura 20°C
Humitat 49%
Pressió 1006 hPa
Visibilitat 10 km o més
Cel ennuvolat a una alçada de 3500 ft

METAR: LRTM 170930Z 13004KT 070V190 9999 BKN035 20/09 Q1006

Hora: 12:57 (09:57 UTC)

Pronòstic

L'informe es va fer fa 1 hora i 57 minuts, a les 08:00 UTC
Pronòstic vàlid del 17 a les 09 UTC al 17 a les 18 UTC
Vent 4 kt amb direcció variable
Visibilitat 10 km o més
Cel ennuvolat a una alçada de 3000 ft
Evolucionant progressivament
l' 17 a les 14 UTC al 17 a les 16 UTC
Núvols disperses a una alçada de 4000 ft, Cumulonimbus.

TAF: LRTM 170800Z 1709/1718 VRB04KT 9999 BKN030 BECMG 1714/1716 SCT040CB

Observacions i pronòstics meteorològics de més de 4000 aeroports (METAR i TAF).

Les estacions disponibles són els punts grocs i vermells al mapa.

Posi el ratolí al punt desitjat per veure el nom de l'estació.

Feu clic per veure les observacions i els pronòstics meteorològics.

Per canviar el mapa: feu clic els botons verds amb una creu de color negre per apropar; al botó verd amb un guió per allunyar la imatge; o en les fletxes verdes per a mapes adjacents.


METAR-TAF: